Time;durP1;ratioP1;P1;durP2;ratioP2;P2;SDS_P1;SDS_P2;PMS_P1;PMS_P2;Temp;Humidity;BMP_temperature;BMP_pressure;BME280_temperature;BME280_humidity;BME280_pressure;Samples;Min_cycle;Max_cycle;Signal;HPM_P1;HPM_P2
2023/07/04 00:01:09;;;;;;;2.60;0.90;;;17.60;88.00;;;;;;5096364;28;20659;-72
2023/07/04 00:03:37;;;;;;;1.90;0.77;;;17.50;88.50;;;;;;5090264;28;20624;-72
2023/07/04 00:06:05;;;;;;;0.60;0.60;;;17.60;88.70;;;;;;5090241;28;21299;-72
2023/07/04 00:08:33;;;;;;;1.53;1.10;;;17.60;89.00;;;;;;5095822;28;20635;-72
2023/07/04 00:11:01;;;;;;;0.80;0.70;;;17.60;89.60;;;;;;5092521;28;21017;-72
2023/07/04 00:13:30;;;;;;;0.80;0.77;;;17.60;90.00;;;;;;5096501;28;20626;-72
2023/07/04 00:15:58;;;;;;;1.20;1.10;;;17.50;90.20;;;;;;5084197;28;20656;-72
2023/07/04 00:18:27;;;;;;;1.13;1.03;;;17.50;90.30;;;;;;5090365;28;20743;-72
2023/07/04 00:20:58;;;;;;;1.20;1.10;;;17.50;90.80;;;;;;5088936;28;21224;-72
2023/07/04 00:23:26;;;;;;;1.57;0.97;;;17.50;91.10;;;;;;5095516;28;20714;-72
2023/07/04 00:25:53;;;;;;;1.30;1.13;;;17.40;91.40;;;;;;5089759;28;21306;-72
2023/07/04 00:28:21;;;;;;;0.90;0.80;;;17.40;91.90;;;;;;5088836;28;20708;-72
2023/07/04 00:30:51;;;;;;;0.77;0.77;;;17.40;92.00;;;;;;5093598;28;20659;-72
2023/07/04 00:33:17;;;;;;;1.17;1.10;;;17.40;92.10;;;;;;5086167;28;20632;-72
2023/07/04 00:35:45;;;;;;;0.70;0.53;;;17.40;92.30;;;;;;5097792;28;21204;-72
2023/07/04 00:38:12;;;;;;;1.40;1.30;;;17.30;92.60;;;;;;5090417;28;20954;-72
2023/07/04 00:40:39;;;;;;;3.70;1.43;;;17.40;93.00;;;;;;5092556;28;20656;-72
2023/07/04 00:43:06;;;;;;;11.00;1.07;;;17.40;93.30;;;;;;5098784;28;20974;-72
2023/07/04 00:45:38;;;;;;;3.00;1.80;;;17.40;93.20;;;;;;5089786;28;20675;-72
2023/07/04 00:48:08;;;;;;;1.07;0.80;;;17.50;93.30;;;;;;5086545;28;20629;-72
2023/07/04 00:50:43;;;;;;;1.20;1.10;;;17.50;93.40;;;;;;5081460;28;20676;-72
2023/07/04 00:53:13;;;;;;;1.70;1.07;;;17.50;93.70;;;;;;5094047;28;20628;-72
2023/07/04 00:55:43;;;;;;;1.80;1.70;;;17.40;94.10;;;;;;5088370;28;20644;-72
2023/07/04 00:58:10;;;;;;;2.43;2.33;;;17.40;94.30;;;;;;5093184;28;20624;-73
2023/07/04 01:00:38;;;;;;;1.20;1.10;;;17.50;94.10;;;;;;5096702;28;20687;-73
2023/07/04 01:03:08;;;;;;;1.57;1.20;;;17.50;94.20;;;;;;5099984;28;20628;-73
2023/07/04 01:05:42;;;;;;;2.13;1.40;;;17.50;94.10;;;;;;5089658;28;20767;-73
2023/07/04 01:08:13;;;;;;;0.83;0.70;;;17.50;94.60;;;;;;5091638;28;20695;-73
2023/07/04 01:10:43;;;;;;;1.20;1.10;;;17.60;94.60;;;;;;5096579;28;21141;-73
2023/07/04 01:13:29;;;;;;;1.20;1.10;;;17.60;94.50;;;;;;5089880;28;20621;-73
2023/07/04 01:15:57;;;;;;;1.07;1.00;;;17.60;94.50;;;;;;5091846;28;20967;-73
2023/07/04 01:18:26;;;;;;;1.23;1.13;;;17.60;94.60;;;;;;5090383;28;20641;-73
2023/07/04 01:20:54;;;;;;;1.20;1.10;;;17.50;94.70;;;;;;5089573;28;20705;-72
2023/07/04 01:23:31;;;;;;;1.17;0.90;;;17.50;95.00;;;;;;5098131;28;20750;-72
2023/07/04 01:26:14;;;;;;;1.90;1.60;;;17.40;95.30;;;;;;5090447;28;21301;-72
2023/07/04 01:28:42;;;;;;;1.63;1.37;;;17.50;95.40;;;;;;5089938;28;20624;-72
2023/07/04 01:31:09;;;;;;;1.80;1.70;;;17.50;95.30;;;;;;5090273;28;20655;-72
2023/07/04 01:33:40;;;;;;;1.07;0.97;;;17.50;95.40;;;;;;5090195;28;20628;-72
2023/07/04 01:36:09;;;;;;;1.33;1.20;;;17.40;95.50;;;;;;5090739;28;20640;-73
2023/07/04 01:38:36;;;;;;;1.70;1.40;;;17.50;95.60;;;;;;5097200;28;20957;-73
2023/07/04 01:41:03;;;;;;;1.07;0.97;;;17.50;95.60;;;;;;5099822;28;20694;-73
2023/07/04 01:43:33;;;;;;;1.33;1.23;;;17.40;95.70;;;;;;5090883;28;20652;-73
2023/07/04 01:46:01;;;;;;;2.10;1.10;;;17.50;95.80;;;;;;5090702;28;21014;-73
2023/07/04 01:48:30;;;;;;;1.37;1.27;;;17.60;95.50;;;;;;5090853;28;20633;-73
2023/07/04 01:50:58;;;;;;;1.43;1.33;;;17.60;95.40;;;;;;5088683;28;20732;-73
2023/07/04 01:53:26;;;;;;;1.47;1.37;;;17.70;95.70;;;;;;5090864;28;20624;-73
2023/07/04 01:55:54;;;;;;;1.13;0.80;;;17.60;95.70;;;;;;5082740;28;20644;-73
2023/07/04 01:58:22;;;;;;;1.90;1.57;;;17.60;95.70;;;;;;5093930;28;20625;-73
2023/07/04 02:00:51;;;;;;;1.40;1.30;;;17.60;95.60;;;;;;5089614;28;20705;-72
2023/07/04 02:03:19;;;;;;;1.23;0.97;;;17.70;95.60;;;;;;5091487;28;20628;-72
2023/07/04 02:05:48;;;;;;;2.83;1.27;;;17.60;95.50;;;;;;5080436;28;20653;-73
2023/07/04 02:08:15;;;;;;;3.20;1.80;;;17.60;95.50;;;;;;5089416;28;20992;-73
2023/07/04 02:10:41;;;;;;;0.97;0.80;;;17.60;95.60;;;;;;5095671;28;21244;-73
2023/07/04 02:13:08;;;;;;;1.27;1.17;;;17.60;95.70;;;;;;5090856;28;20625;-73
2023/07/04 02:15:35;;;;;;;1.30;1.20;;;17.60;95.90;;;;;;5091592;28;21283;-73
2023/07/04 02:18:03;;;;;;;1.37;1.27;;;17.50;96.10;;;;;;5088801;28;20628;-73
2023/07/04 02:20:31;;;;;;;0.93;0.87;;;17.60;95.90;;;;;;5093716;28;20652;-73
2023/07/04 02:22:58;;;;;;;1.33;1.00;;;17.60;96.00;;;;;;5092706;28;20813;-73
2023/07/04 02:25:25;;;;;;;2.17;1.43;;;17.60;95.70;;;;;;5088760;28;20663;-73
2023/07/04 02:27:53;;;;;;;2.30;1.70;;;17.60;95.90;;;;;;5087959;28;20625;-73
2023/07/04 02:30:21;;;;;;;1.07;0.90;;;17.60;95.90;;;;;;5092652;28;20975;-73
2023/07/04 02:32:48;;;;;;;0.80;0.80;;;17.60;95.80;;;;;;5092833;28;20617;-72
2023/07/04 02:35:18;;;;;;;1.20;1.10;;;17.60;95.90;;;;;;5090676;28;20706;-73
2023/07/04 02:37:45;;;;;;;1.43;1.33;;;17.60;95.90;;;;;;5088267;28;21118;-72
2023/07/04 02:40:12;;;;;;;0.80;0.80;;;17.50;95.90;;;;;;5087422;28;20628;-72
2023/07/04 02:42:40;;;;;;;2.43;1.20;;;17.50;96.00;;;;;;5090485;28;21277;-72
2023/07/04 02:45:08;;;;;;;2.97;1.20;;;17.50;95.80;;;;;;5085644;28;20655;-72
2023/07/04 02:47:36;;;;;;;1.73;1.63;;;17.40;95.90;;;;;;5088377;28;20680;-72
2023/07/04 02:50:04;;;;;;;1.27;1.10;;;17.40;96.20;;;;;;5087567;28;20625;-73
2023/07/04 02:52:33;;;;;;;1.57;1.07;;;17.30;96.30;;;;;;5088088;28;20621;-73
2023/07/04 02:55:01;;;;;;;1.33;0.97;;;17.20;96.30;;;;;;5088472;28;20628;-73
2023/07/04 02:57:29;;;;;;;1.33;1.23;;;17.30;96.60;;;;;;5088281;28;20638;-72
2023/07/04 02:59:59;;;;;;;1.70;1.07;;;17.20;96.50;;;;;;5090002;28;20724;-72
2023/07/04 03:02:26;;;;;;;18.80;1.80;;;17.20;96.80;;;;;;5094347;28;20680;-73
2023/07/04 03:04:54;;;;;;;0.93;0.80;;;17.10;97.40;;;;;;5095176;28;21272;-72
2023/07/04 03:07:22;;;;;;;1.53;1.23;;;17.20;97.00;;;;;;5085759;28;21110;-73
2023/07/04 03:09:51;;;;;;;0.73;0.70;;;17.30;96.60;;;;;;5094516;28;20702;-73
2023/07/04 03:12:18;;;;;;;1.13;1.13;;;17.30;96.80;;;;;;5089097;28;21012;-72
2023/07/04 03:14:45;;;;;;;1.73;0.93;;;17.20;96.80;;;;;;5088362;28;20652;-73
2023/07/04 03:17:14;;;;;;;1.00;0.77;;;17.20;96.90;;;;;;5088986;28;20668;-73
2023/07/04 03:19:40;;;;;;;0.93;0.93;;;17.20;96.80;;;;;;5089784;28;20613;-73
2023/07/04 03:22:07;;;;;;;1.40;1.00;;;17.30;96.80;;;;;;5087239;28;21222;-73
2023/07/04 03:24:34;;;;;;;1.40;0.90;;;17.30;96.80;;;;;;5092871;28;20628;-73
2023/07/04 03:27:02;;;;;;;0.80;0.80;;;17.30;96.90;;;;;;5087615;28;21280;-72
2023/07/04 03:29:29;;;;;;;1.00;0.97;;;17.30;96.90;;;;;;5087157;28;20621;-73
2023/07/04 03:31:56;;;;;;;1.33;0.93;;;17.30;96.90;;;;;;5087788;28;20752;-73
2023/07/04 03:34:23;;;;;;;1.40;1.00;;;17.20;97.00;;;;;;5089317;28;20716;-73
2023/07/04 03:36:50;;;;;;;0.83;0.80;;;17.20;97.20;;;;;;5086979;28;21292;-73
2023/07/04 03:39:16;;;;;;;1.10;0.70;;;17.10;97.30;;;;;;5086888;28;21010;-73
2023/07/04 03:41:43;;;;;;;0.70;0.60;;;17.10;97.30;;;;;;5094056;28;20652;-73
2023/07/04 03:44:11;;;;;;;1.00;0.90;;;17.30;97.30;;;;;;5089554;28;21188;-73
2023/07/04 03:46:38;;;;;;;0.97;0.97;;;17.40;97.00;;;;;;5087696;28;20661;-73
2023/07/04 03:49:05;;;;;;;1.57;0.90;;;17.40;96.90;;;;;;5090668;28;20617;-73
2023/07/04 03:51:31;;;;;;;0.87;0.87;;;17.50;96.80;;;;;;5087520;28;20655;-73
2023/07/04 03:53:58;;;;;;;1.13;1.00;;;17.30;97.10;;;;;;5088060;28;20634;-73
2023/07/04 03:56:25;;;;;;;1.17;1.07;;;17.30;97.10;;;;;;5088427;28;20653;-73
2023/07/04 03:58:52;;;;;;;1.97;0.97;;;17.30;97.20;;;;;;5089043;28;20625;-73
2023/07/04 04:01:20;;;;;;;1.47;1.37;;;17.30;97.10;;;;;;5092454;28;20662;-73
2023/07/04 04:03:47;;;;;;;0.97;0.83;;;17.30;97.30;;;;;;5079271;28;20636;-73
2023/07/04 04:06:14;;;;;;;1.10;1.00;;;17.50;97.10;;;;;;5087491;28;20763;-73
2023/07/04 04:08:41;;;;;;;1.03;1.00;;;17.40;97.00;;;;;;5086321;28;20620;-72
2023/07/04 04:11:07;;;;;;;0.90;0.90;;;17.40;96.90;;;;;;5094418;28;20740;-72
2023/07/04 04:13:34;;;;;;;1.27;0.90;;;17.40;96.90;;;;;;5092511;28;20625;-72
2023/07/04 04:16:01;;;;;;;0.80;0.80;;;17.40;97.00;;;;;;5089231;28;20656;-72
2023/07/04 04:18:30;;;;;;;1.00;0.90;;;17.40;97.10;;;;;;5086727;28;20674;-72
2023/07/04 04:20:57;;;;;;;0.53;0.53;;;17.40;96.90;;;;;;5088751;28;20719;-72
2023/07/04 04:23:24;;;;;;;1.17;1.07;;;17.40;97.00;;;;;;5095365;28;20969;-72
2023/07/04 04:25:51;;;;;;;1.27;0.93;;;17.30;97.10;;;;;;5098721;28;20650;-72
2023/07/04 04:28:18;;;;;;;0.70;0.70;;;17.30;97.20;;;;;;5090663;28;20655;-72
2023/07/04 04:30:44;;;;;;;1.10;0.90;;;17.40;97.50;;;;;;5090096;28;20648;-72
2023/07/04 04:33:11;;;;;;;0.80;0.80;;;17.30;97.60;;;;;;5091131;28;20644;-72
2023/07/04 04:35:40;;;;;;;1.00;0.60;;;17.20;97.80;;;;;;5092980;28;20640;-74
2023/07/04 04:38:10;;;;;;;1.00;0.93;;;17.40;98.10;;;;;;5092627;28;21019;-75
2023/07/04 04:40:37;;;;;;;0.97;0.80;;;17.50;97.90;;;;;;5094741;28;20643;-74
2023/07/04 04:43:04;;;;;;;1.17;0.93;;;17.60;97.90;;;;;;5096113;28;20626;-74
2023/07/04 04:45:31;;;;;;;1.20;1.00;;;17.60;97.60;;;;;;5100564;28;20762;-74
2023/07/04 04:48:01;;;;;;;0.70;0.60;;;17.60;97.50;;;;;;5095037;28;20660;-74
2023/07/04 04:50:30;;;;;;;1.37;1.10;;;17.60;97.50;;;;;;5097637;28;20721;-74
2023/07/04 04:52:59;;;;;;;1.90;1.40;;;17.70;97.60;;;;;;5090849;28;20632;-75
2023/07/04 04:55:26;;;;;;;0.80;0.70;;;17.70;97.80;;;;;;5096136;28;21456;-74
2023/07/04 04:57:53;;;;;;;1.33;1.23;;;17.70;97.70;;;;;;5090189;28;20627;-75
2023/07/04 05:00:21;;;;;;;0.97;0.97;;;17.60;98.00;;;;;;5089625;28;20627;-75
2023/07/04 05:02:47;;;;;;;1.97;1.47;;;17.70;97.70;;;;;;5094498;28;20632;-75
2023/07/04 05:05:15;;;;;;;2.00;1.30;;;17.60;97.80;;;;;;5093595;28;20635;-75
2023/07/04 05:07:41;;;;;;;3.40;1.53;;;17.70;97.60;;;;;;5094295;28;20645;-75
2023/07/04 05:10:11;;;;;;;0.70;0.70;;;17.90;97.40;;;;;;5094551;28;20631;-76
2023/07/04 05:12:38;;;;;;;1.83;1.07;;;18.00;97.10;;;;;;5092318;28;20743;-73
2023/07/04 05:15:07;;;;;;;0.90;0.90;;;18.10;96.80;;;;;;5089662;28;20634;-73
2023/07/04 05:17:34;;;;;;;1.40;0.97;;;18.30;96.40;;;;;;5090406;28;20660;-72
2023/07/04 05:20:01;;;;;;;1.47;1.37;;;18.30;96.00;;;;;;5089091;28;20620;-73
2023/07/04 05:22:28;;;;;;;1.90;0.97;;;18.20;96.00;;;;;;5092685;28;20762;-73
2023/07/04 05:24:56;;;;;;;1.07;1.07;;;18.20;95.90;;;;;;5093425;28;20990;-73
2023/07/04 05:27:25;;;;;;;1.40;1.30;;;18.20;96.00;;;;;;5092031;28;21224;-73
2023/07/04 05:29:51;;;;;;;1.23;1.20;;;18.30;95.90;;;;;;5096567;28;20612;-74
2023/07/04 05:32:18;;;;;;;2.13;1.40;;;18.40;95.60;;;;;;5090369;28;20648;-74
2023/07/04 05:34:47;;;;;;;1.30;1.17;;;18.30;95.70;;;;;;5089436;28;20627;-73
2023/07/04 05:37:14;;;;;;;2.87;2.23;;;18.30;95.90;;;;;;5089434;28;20745;-72
2023/07/04 05:39:41;;;;;;;0.90;0.77;;;18.30;96.70;;;;;;5088362;28;20730;-75
2023/07/04 05:42:07;;;;;;;0.93;0.83;;;18.50;95.80;;;;;;5093816;28;20656;-74
2023/07/04 05:44:36;;;;;;;1.13;0.97;;;18.40;95.50;;;;;;5089321;28;20640;-74
2023/07/04 05:47:02;;;;;;;1.50;1.20;;;18.40;95.50;;;;;;5086936;28;20666;-74
2023/07/04 05:49:29;;;;;;;0.97;0.87;;;18.40;95.80;;;;;;5088675;28;20718;-74
2023/07/04 05:51:56;;;;;;;1.60;1.10;;;18.50;95.60;;;;;;5089203;28;20655;-74
2023/07/04 05:54:23;;;;;;;1.37;1.10;;;18.50;95.40;;;;;;5088492;28;20639;-74
2023/07/04 05:56:52;;;;;;;1.43;1.33;;;18.50;95.20;;;;;;5098373;28;20648;-74
2023/07/04 05:59:19;;;;;;;1.47;1.17;;;18.50;95.30;;;;;;5088109;28;20953;-74
2023/07/04 06:01:47;;;;;;;1.23;1.10;;;18.40;95.20;;;;;;5092688;28;20652;-74
2023/07/04 06:04:15;;;;;;;1.50;1.30;;;18.50;95.20;;;;;;5092516;28;20623;-74
2023/07/04 06:06:43;;;;;;;2.90;1.57;;;18.60;95.00;;;;;;5086503;28;20646;-74
2023/07/04 06:09:12;;;;;;;1.50;1.10;;;18.60;94.90;;;;;;5088186;28;20627;-74
2023/07/04 06:11:45;;;;;;;1.93;1.20;;;18.60;94.80;;;;;;5089515;28;21007;-74
2023/07/04 06:14:15;;;;;;;1.33;1.23;;;18.80;94.40;;;;;;5088555;28;20773;-74
2023/07/04 06:16:42;;;;;;;2.27;1.50;;;18.90;94.40;;;;;;5086557;28;20656;-74
2023/07/04 06:19:10;;;;;;;1.70;1.13;;;19.00;93.90;;;;;;5087797;28;20635;-74
2023/07/04 06:21:37;;;;;;;2.20;1.33;;;19.20;93.50;;;;;;5088632;28;20655;-74
2023/07/04 06:24:04;;;;;;;1.73;1.60;;;19.30;92.90;;;;;;5090966;28;20640;-73
2023/07/04 06:26:32;;;;;;;1.07;0.97;;;19.20;92.50;;;;;;5088492;28;20653;-74
2023/07/04 06:29:00;;;;;;;2.30;0.80;;;19.20;92.90;;;;;;5087739;28;20655;-73
2023/07/04 06:31:28;;;;;;;1.40;1.30;;;19.40;92.50;;;;;;5092060;28;20763;-73
2023/07/04 06:33:55;;;;;;;2.20;1.47;;;19.60;92.40;;;;;;5091681;28;20621;-75
2023/07/04 06:36:24;;;;;;;2.30;1.50;;;19.80;91.40;;;;;;5090138;28;20650;-74
2023/07/04 06:38:51;;;;;;;1.60;1.43;;;19.70;91.20;;;;;;5089579;28;20609;-74
2023/07/04 06:41:18;;;;;;;1.73;1.17;;;19.90;91.40;;;;;;5097508;28;20666;-74
2023/07/04 06:43:48;;;;;;;2.10;1.53;;;19.80;90.80;;;;;;5088615;28;20635;-74
2023/07/04 06:46:17;;;;;;;2.50;1.90;;;19.80;90.90;;;;;;5087558;28;20989;-75
2023/07/04 06:48:46;;;;;;;2.97;1.57;;;19.80;90.30;;;;;;5088557;28;21022;-74
2023/07/04 06:51:14;;;;;;;1.50;1.40;;;20.00;90.20;;;;;;5089683;28;20655;-74
2023/07/04 06:53:42;;;;;;;7.23;2.27;;;19.80;85.80;;;;;;5087040;28;21482;-74
2023/07/04 06:56:11;;;;;;;1.73;1.17;;;19.70;85.10;;;;;;5088079;28;20644;-75
2023/07/04 06:58:42;;;;;;;1.90;1.67;;;19.90;87.10;;;;;;5085722;28;20629;-75
2023/07/04 07:01:15;;;;;;;1.47;1.20;;;19.90;86.30;;;;;;5086388;28;21038;-73
2023/07/04 07:03:41;;;;;;;1.80;1.60;;;19.80;86.00;;;;;;5088777;28;20690;-73
2023/07/04 07:06:12;;;;;;;1.80;1.70;;;19.80;86.40;;;;;;5089126;28;20680;-73
2023/07/04 07:08:39;;;;;;;1.23;1.13;;;19.90;86.80;;;;;;5086667;28;20648;-74
2023/07/04 07:11:15;;;;;;;1.77;1.40;;;20.00;86.40;;;;;;5086315;28;20668;-74
2023/07/04 07:13:43;;;;;;;1.80;1.40;;;20.10;87.10;;;;;;5086861;28;20631;-74
2023/07/04 07:16:17;;;;;;;1.73;1.43;;;20.00;84.00;;;;;;5087114;28;20641;-73
2023/07/04 07:18:47;;;;;;;1.67;1.30;;;19.80;84.50;;;;;;5086443;28;20620;-73
2023/07/04 07:21:20;;;;;;;1.50;1.30;;;20.00;85.70;;;;;;5087119;28;21004;-73
2023/07/04 07:23:48;;;;;;;1.30;1.20;;;19.90;85.40;;;;;;5087465;28;20647;-73
2023/07/04 07:26:20;;;;;;;1.50;1.10;;;19.90;86.70;;;;;;5087733;28;20649;-74
2023/07/04 07:28:47;;;;;;;2.10;1.90;;;20.00;87.20;;;;;;5087181;28;20664;-73
2023/07/04 07:31:16;;;;;;;1.83;1.60;;;19.90;85.80;;;;;;5086897;28;21167;-73
2023/07/04 07:33:45;;;;;;;3.10;2.03;;;20.00;86.50;;;;;;5087360;28;20625;-72
2023/07/04 07:36:18;;;;;;;1.70;1.60;;;20.00;84.90;;;;;;5089024;28;20758;-73
2023/07/04 07:38:45;;;;;;;1.93;1.80;;;19.90;83.70;;;;;;5087299;28;20623;-72
2023/07/04 07:41:13;;;;;;;4.40;1.47;;;20.10;84.40;;;;;;5089785;28;20647;-72
2023/07/04 07:43:45;;;;;;;2.20;1.70;;;20.20;85.00;;;;;;5088586;28;20627;-73
2023/07/04 07:46:14;;;;;;;1.93;1.60;;;20.30;82.20;;;;;;5084770;28;20646;-72
2023/07/04 07:48:41;;;;;;;1.30;1.00;;;20.30;81.00;;;;;;5086681;28;20648;-72
2023/07/04 07:51:12;;;;;;;3.20;1.97;;;20.30;81.10;;;;;;5083778;28;20650;-73
2023/07/04 07:53:40;;;;;;;2.60;2.30;;;20.30;80.90;;;;;;5086373;28;20624;-73
2023/07/04 07:56:12;;;;;;;2.93;1.70;;;20.40;80.90;;;;;;5086381;28;20645;-73
2023/07/04 07:58:44;;;;;;;5.80;1.53;;;20.40;81.50;;;;;;5089699;28;20625;-73
2023/07/04 08:01:31;;;;;;;4.47;1.50;;;20.60;82.40;;;;;;5092444;28;20660;-73
2023/07/04 08:03:58;;;;;;;1.40;1.30;;;20.70;79.40;;;;;;5092102;28;20693;-73
2023/07/04 08:06:27;;;;;;;4.10;3.80;;;20.70;79.40;;;;;;5091592;28;21014;-73
2023/07/04 08:08:55;;;;;;;1.70;1.60;;;20.70;78.70;;;;;;5088079;28;20652;-73
2023/07/04 08:11:22;;;;;;;2.10;1.80;;;20.90;79.90;;;;;;5092299;28;20657;-73
2023/07/04 08:13:51;;;;;;;2.70;2.40;;;21.00;79.80;;;;;;5089646;28;20629;-73
2023/07/04 08:16:20;;;;;;;2.57;1.90;;;21.10;78.10;;;;;;5092186;28;20645;-73
2023/07/04 08:18:47;;;;;;;2.90;2.40;;;21.10;78.80;;;;;;5093762;28;20631;-73
2023/07/04 08:21:14;;;;;;;2.23;1.90;;;21.10;77.90;;;;;;5091184;28;21227;-73
2023/07/04 08:23:41;;;;;;;2.40;1.47;;;21.10;78.40;;;;;;5090569;28;21212;-73
2023/07/04 08:26:08;;;;;;;1.73;1.50;;;21.00;77.90;;;;;;5091109;28;20690;-73
2023/07/04 08:28:35;;;;;;;1.80;1.50;;;21.10;79.10;;;;;;5098040;28;20691;-73
2023/07/04 08:31:08;;;;;;;1.80;1.53;;;21.30;79.40;;;;;;5091024;28;20655;-73
2023/07/04 08:33:35;;;;;;;2.00;1.80;;;21.50;76.30;;;;;;5090536;28;20751;-73
2023/07/04 08:36:04;;;;;;;1.90;1.70;;;21.60;77.00;;;;;;5098164;28;20655;-73
2023/07/04 08:38:31;;;;;;;2.10;1.63;;;21.80;76.90;;;;;;5096640;28;20661;-73
2023/07/04 08:40:58;;;;;;;1.63;1.53;;;21.80;77.30;;;;;;5091831;28;21253;-73
2023/07/04 08:43:31;;;;;;;3.43;3.23;;;21.60;76.40;;;;;;5092143;28;20631;-73
2023/07/04 08:45:58;;;;;;;4.43;2.83;;;21.60;76.10;;;;;;5093879;28;20652;-73
2023/07/04 08:48:27;;;;;;;3.83;2.60;;;21.60;75.20;;;;;;5090532;28;20768;-73
2023/07/04 08:50:57;;;;;;;3.00;2.23;;;21.50;75.70;;;;;;5089672;28;21257;-72
2023/07/04 08:53:25;;;;;;;2.43;2.23;;;21.80;75.30;;;;;;5088597;28;21203;-73
2023/07/04 08:56:00;;;;;;;2.13;1.93;;;22.20;76.60;;;;;;5087453;28;20644;-73
2023/07/04 08:58:34;;;;;;;1.97;1.80;;;22.40;72.10;;;;;;5088501;28;20617;-73
2023/07/04 09:01:05;;;;;;;2.37;1.90;;;22.50;72.60;;;;;;5090947;28;20753;-73
2023/07/04 09:03:41;;;;;;;2.60;2.27;;;22.50;71.20;;;;;;5090698;28;20631;-72
2023/07/04 09:06:16;;;;;;;2.40;1.90;;;22.50;72.40;;;;;;5089062;28;20685;-72
2023/07/04 09:08:55;;;;;;;2.40;2.20;;;22.30;72.10;;;;;;5090031;28;21547;-72
2023/07/04 09:11:23;;;;;;;3.10;2.20;;;22.60;72.60;;;;;;5089378;28;20656;-72
2023/07/04 09:13:56;;;;;;;3.13;2.30;;;22.90;71.50;;;;;;5088087;28;20628;-72
2023/07/04 09:16:30;;;;;;;2.63;1.93;;;22.70;70.60;;;;;;5089157;28;20751;-72
2023/07/04 09:19:03;;;;;;;3.90;2.40;;;23.00;70.30;;;;;;5088916;28;20738;-72
2023/07/04 09:21:32;;;;;;;3.20;2.57;;;23.40;66.80;;;;;;5091661;28;20661;-72
2023/07/04 09:24:02;;;;;;;4.10;2.43;;;23.50;67.20;;;;;;5095551;28;20640;-72
2023/07/04 09:26:36;;;;;;;4.20;3.07;;;23.70;66.80;;;;;;5088500;28;20642;-73
2023/07/04 09:29:06;;;;;;;2.37;2.10;;;23.70;67.20;;;;;;5088136;28;20769;-73
2023/07/04 09:31:36;;;;;;;2.40;2.20;;;23.80;67.40;;;;;;5089633;28;20658;-73
2023/07/04 09:34:12;;;;;;;2.40;2.20;;;23.50;66.60;;;;;;5094615;28;20631;-73
2023/07/04 09:36:40;;;;;;;2.60;2.30;;;23.30;65.50;;;;;;5089341;28;21075;-73
2023/07/04 09:39:09;;;;;;;2.80;2.30;;;23.20;66.90;;;;;;5095121;28;20632;-73
2023/07/04 09:41:38;;;;;;;3.23;2.47;;;23.00;66.10;;;;;;5091633;28;20706;-73
2023/07/04 09:44:17;;;;;;;3.67;2.30;;;22.80;65.70;;;;;;5091090;28;20638;-72
2023/07/04 09:46:49;;;;;;;2.47;2.20;;;22.80;66.60;;;;;;5092674;28;21251;-72
2023/07/04 09:49:22;;;;;;;2.30;2.10;;;22.80;68.30;;;;;;5088511;28;20666;-72
2023/07/04 09:51:59;;;;;;;3.00;1.90;;;22.90;68.40;;;;;;5090972;28;20683;-71
2023/07/04 09:54:27;;;;;;;2.57;2.37;;;22.80;67.90;;;;;;5100355;28;20617;-73
2023/07/04 09:56:54;;;;;;;2.60;2.30;;;22.60;67.30;;;;;;5089787;28;20652;-73
2023/07/04 09:59:24;;;;;;;3.10;2.50;;;22.50;68.10;;;;;;5090078;28;20739;-72
2023/07/04 10:01:52;;;;;;;2.60;2.30;;;22.50;68.30;;;;;;5092748;28;20652;-73
2023/07/04 10:04:27;;;;;;;2.50;2.30;;;22.20;69.90;;;;;;5090321;28;20699;-72
2023/07/04 10:06:56;;;;;;;14.87;4.70;;;22.10;66.50;;;;;;5083864;28;20651;-72
2023/07/04 10:09:23;;;;;;;2.07;1.87;;;21.90;67.20;;;;;;5089648;28;20661;-72
2023/07/04 10:11:51;;;;;;;2.77;2.50;;;21.80;68.30;;;;;;5090060;28;20647;-73
2023/07/04 10:14:34;;;;;;;3.43;3.10;;;21.70;68.20;;;;;;5090725;28;20637;-72
2023/07/04 10:17:10;;;;;;;3.40;2.13;;;21.70;69.80;;;;;;5082703;28;20653;-73
2023/07/04 10:19:43;;;;;;;2.43;2.10;;;21.80;68.90;;;;;;5090874;28;20625;-73
2023/07/04 10:22:10;;;;;;;3.10;2.87;;;22.20;70.50;;;;;;5096215;28;20647;-72
2023/07/04 10:24:37;;;;;;;2.97;2.10;;;22.80;68.10;;;;;;5090570;28;20645;-72
2023/07/04 10:27:07;;;;;;;3.17;2.40;;;23.30;65.60;;;;;;5089044;28;20664;-73
2023/07/04 10:29:39;;;;;;;5.70;2.10;;;23.80;64.80;;;;;;5087985;28;20666;-73
2023/07/04 10:32:13;;;;;;;3.43;2.43;;;24.20;63.00;;;;;;5093024;28;20653;-73
2023/07/04 10:34:43;;;;;;;5.07;2.47;;;24.20;63.80;;;;;;5088239;28;21487;-72
2023/07/04 10:37:18;;;;;;;4.03;2.40;;;24.40;62.60;;;;;;5095315;28;20660;-72
2023/07/04 10:39:45;;;;;;;2.60;2.40;;;24.70;62.30;;;;;;5088605;28;20637;-72
2023/07/04 10:42:16;;;;;;;3.10;2.50;;;24.60;62.40;;;;;;5095673;28;20657;-72
2023/07/04 10:44:48;;;;;;;3.47;2.27;;;24.50;61.70;;;;;;5093279;28;20631;-72
2023/07/04 10:47:22;;;;;;;2.43;2.07;;;24.30;63.40;;;;;;5089106;28;20648;-72
2023/07/04 10:49:55;;;;;;;2.93;2.40;;;24.20;65.50;;;;;;5089716;28;20655;-73
2023/07/04 10:52:26;;;;;;;3.10;2.80;;;24.20;65.30;;;;;;5089278;28;20651;-73
2023/07/04 10:54:53;;;;;;;3.90;2.77;;;24.00;63.40;;;;;;5087935;28;20640;-72
2023/07/04 10:57:25;;;;;;;3.87;2.63;;;23.50;61.50;;;;;;5088203;28;20659;-73
2023/07/04 10:59:58;;;;;;;5.13;2.20;;;23.40;59.40;;;;;;5086948;28;20625;-72
2023/07/04 11:02:30;;;;;;;2.07;1.87;;;23.30;61.10;;;;;;5090110;28;20668;-72
2023/07/04 11:05:06;;;;;;;2.67;2.17;;;23.10;61.20;;;;;;5089881;28;20640;-73
2023/07/04 11:07:35;;;;;;;2.57;2.33;;;23.10;60.70;;;;;;5086520;28;21337;-73
2023/07/04 11:10:08;;;;;;;2.90;2.23;;;23.40;63.00;;;;;;5088573;28;20670;-72
2023/07/04 11:12:37;;;;;;;4.10;2.27;;;23.60;62.90;;;;;;5091478;28;20650;-72
2023/07/04 11:15:08;;;;;;;3.00;2.50;;;23.90;60.80;;;;;;5088133;28;20991;-72
2023/07/04 11:17:37;;;;;;;2.93;2.27;;;24.20;61.40;;;;;;5088516;28;20712;-72
2023/07/04 11:20:11;;;;;;;4.67;2.47;;;24.30;61.00;;;;;;5087398;28;20638;-72
2023/07/04 11:22:46;;;;;;;4.30;2.20;;;24.40;59.60;;;;;;5091508;28;20626;-73
2023/07/04 11:25:53;;;;;;;4.67;2.27;;;24.40;59.30;;;;;;5091292;28;20681;-73
2023/07/04 11:28:26;;;;;;;2.80;2.30;;;24.30;60.10;;;;;;5088459;28;20634;-72
2023/07/04 11:31:07;;;;;;;1.80;1.70;;;24.10;58.60;;;;;;5094620;28;20664;-73
2023/07/04 11:33:42;;;;;;;2.40;2.10;;;24.10;58.70;;;;;;5095403;28;20978;-73
2023/07/04 11:36:18;;;;;;;3.30;2.13;;;24.20;58.40;;;;;;5094083;28;20777;-73
2023/07/04 11:38:52;;;;;;;4.33;1.93;;;24.70;59.20;;;;;;5094955;28;21192;-72
2023/07/04 11:41:27;;;;;;;2.47;2.27;;;25.10;58.10;;;;;;5090543;28;20878;-72
2023/07/04 11:43:55;;;;;;;5.07;1.77;;;26.00;58.60;;;;;;5094498;28;20716;-71
2023/07/04 11:46:24;;;;;;;3.37;2.23;;;26.70;57.20;;;;;;5093062;28;21212;-71
2023/07/04 11:48:55;;;;;;;2.40;2.20;;;26.80;54.90;;;;;;5090975;28;21419;-71
2023/07/04 11:51:25;;;;;;;1.70;1.60;;;26.20;54.00;;;;;;5090522;28;21219;-72
2023/07/04 11:53:57;;;;;;;2.80;2.30;;;26.30;55.50;;;;;;5088037;28;20638;-72
2023/07/04 11:56:37;;;;;;;2.30;2.10;;;26.80;55.60;;;;;;5091971;28;20647;-72
2023/07/04 11:59:28;;;;;;;3.10;2.20;;;27.40;55.00;;;;;;5091230;28;20632;-72
2023/07/04 12:02:23;;;;;;;6.47;2.47;;;28.30;52.70;;;;;;5089382;28;20652;-72
2023/07/04 12:04:51;;;;;;;2.03;1.83;;;29.20;51.10;;;;;;5091341;28;20647;-73
2023/07/04 12:07:27;;;;;;;2.50;1.80;;;30.00;50.50;;;;;;5090029;28;21004;-72
2023/07/04 12:10:02;;;;;;;2.30;1.87;;;30.70;48.80;;;;;;5090620;28;20684;-74
2023/07/04 12:12:31;;;;;;;3.10;2.20;;;30.10;47.90;;;;;;5090801;28;21301;-73
2023/07/04 12:15:02;;;;;;;2.90;1.90;;;29.80;49.70;;;;;;5095540;28;20634;-73
2023/07/04 12:17:29;;;;;;;2.10;1.90;;;29.70;49.70;;;;;;5093946;28;20658;-73
2023/07/04 12:20:02;;;;;;;2.07;1.87;;;29.60;49.10;;;;;;5090424;28;20631;-73
2023/07/04 12:22:31;;;;;;;3.30;2.00;;;29.20;48.50;;;;;;5100568;28;20623;-73
2023/07/04 12:25:08;;;;;;;2.83;2.53;;;27.90;49.30;;;;;;5088666;28;20723;-73
2023/07/04 12:27:35;;;;;;;2.57;2.37;;;26.80;50.10;;;;;;5093841;28;20627;-73
2023/07/04 12:30:02;;;;;;;3.13;2.13;;;26.60;51.40;;;;;;5088104;28;21058;-73
2023/07/04 12:32:29;;;;;;;2.03;1.87;;;27.40;51.00;;;;;;5093451;28;21208;-73
2023/07/04 12:34:56;;;;;;;3.17;2.10;;;27.30;49.70;;;;;;5091401;28;20652;-73
2023/07/04 12:37:27;;;;;;;2.43;2.23;;;27.00;50.40;;;;;;5093098;28;20654;-72
2023/07/04 12:40:01;;;;;;;1.93;1.73;;;26.20;50.60;;;;;;5091403;28;20612;-73
2023/07/04 12:42:31;;;;;;;2.67;2.20;;;26.20;51.90;;;;;;5088459;28;20658;-72
2023/07/04 12:44:58;;;;;;;2.00;1.77;;;26.50;52.30;;;;;;5090246;28;20620;-73
2023/07/04 12:47:28;;;;;;;3.43;2.27;;;26.80;51.40;;;;;;5086880;28;20666;-72
2023/07/04 12:49:56;;;;;;;2.27;2.07;;;28.30;52.10;;;;;;5085760;28;20658;-73
2023/07/04 12:52:28;;;;;;;2.90;2.00;;;28.90;49.70;;;;;;5088375;28;20649;-73
2023/07/04 12:54:59;;;;;;;1.57;1.47;;;28.50;47.80;;;;;;5089281;28;20630;-73
2023/07/04 12:57:28;;;;;;;1.50;1.40;;;27.60;48.90;;;;;;5085894;28;20643;-73